createdAt,value
2023-02-12T00:00:15.768Z,31.90
2023-02-12T00:05:16.582Z,33.90
2023-02-12T00:10:15.430Z,40.17
2023-02-12T00:15:15.552Z,37.97
2023-02-12T00:20:14.565Z,33.13
2023-02-12T00:25:14.083Z,37.43
2023-02-12T00:30:13.752Z,35.87
2023-02-12T00:35:14.212Z,36.00
2023-02-12T00:40:13.798Z,32.23
2023-02-12T00:45:12.588Z,38.00
2023-02-12T00:50:13.543Z,35.03
2023-02-12T00:55:12.869Z,37.87
2023-02-12T01:00:13.066Z,36.73
2023-02-12T01:05:13.245Z,38.93
2023-02-12T01:10:12.998Z,38.77
2023-02-12T01:15:13.036Z,40.53
2023-02-12T01:20:17.453Z,36.70
2023-02-12T01:25:18.734Z,33.97
2023-02-12T01:30:22.240Z,40.37
2023-02-12T01:40:23.016Z,48.50
2023-02-12T01:45:53.688Z,48.87
2023-02-12T01:50:56.074Z,41.00
2023-02-12T01:55:58.514Z,41.73
2023-02-12T02:00:57.759Z,39.37
2023-02-12T02:06:03.941Z,39.70
2023-02-12T02:11:23.993Z,38.00
2023-02-12T02:16:27.349Z,42.80
2023-02-12T02:21:48.789Z,36.85
2023-02-12T02:27:20.121Z,42.73
2023-02-12T02:32:25.651Z,41.00
2023-02-12T02:37:31.403Z,40.93
2023-02-12T02:42:36.225Z,44.03
2023-02-12T02:47:42.728Z,38.73
2023-02-12T02:52:46.449Z,41.27
2023-02-12T02:57:49.851Z,42.00
2023-02-12T03:02:53.924Z,40.72
2023-02-12T03:07:56.270Z,44.57
2023-02-12T03:12:58.869Z,47.93
2023-02-12T03:18:01.120Z,42.63
2023-02-12T03:23:05.675Z,40.80
2023-02-12T03:28:08.288Z,52.27
2023-02-12T03:33:19.682Z,39.17
2023-02-12T03:38:29.112Z,39.00
2023-02-12T03:43:34.745Z,44.53
2023-02-12T03:48:42.611Z,45.33
2023-02-12T03:53:42.787Z,42.00
2023-02-12T03:58:43.722Z,43.00
2023-02-12T04:03:43.873Z,40.70
2023-02-12T04:08:42.709Z,46.80
2023-02-12T04:13:47.432Z,40.87
2023-02-12T04:18:49.709Z,44.70
2023-02-12T04:23:56.070Z,38.73
2023-02-12T04:29:06.694Z,44.80
2023-02-12T04:34:13.716Z,46.23
2023-02-12T04:39:17.952Z,43.33
2023-02-12T04:44:19.059Z,42.43
2023-02-12T04:49:21.667Z,46.53
2023-02-12T04:54:22.186Z,45.67
2023-02-12T04:59:20.967Z,45.00
2023-02-12T05:04:21.219Z,47.43
2023-02-12T05:09:21.763Z,42.97
2023-02-12T05:14:20.586Z,48.30
2023-02-12T05:19:20.744Z,49.30
2023-02-12T05:24:19.691Z,43.90
2023-02-12T05:29:21.998Z,46.00
2023-02-12T05:34:22.327Z,77.33
2023-02-12T05:39:21.178Z,113.77
2023-02-12T05:44:19.917Z,151.50
2023-02-12T05:49:18.752Z,124.93
2023-02-12T05:54:18.918Z,64.90
2023-02-12T05:59:20.114Z,51.93
2023-02-12T06:04:20.869Z,62.07
2023-02-12T06:09:21.611Z,66.90
2023-02-12T06:14:21.658Z,61.73
2023-02-12T06:19:22.201Z,59.47
2023-02-12T06:24:24.844Z,52.53
2023-02-12T06:29:24.288Z,56.87
2023-02-12T06:34:23.125Z,50.20
2023-02-12T06:39:23.291Z,57.30
2023-02-12T06:44:22.134Z,52.30
2023-02-12T06:49:20.994Z,54.43
2023-02-12T06:54:20.084Z,54.73
2023-02-12T06:59:21.265Z,63.53
2023-02-12T07:04:20.199Z,56.57
2023-02-12T07:09:18.999Z,52.53
2023-02-12T07:14:19.525Z,48.70
2023-02-12T07:19:18.413Z,50.03
2023-02-12T07:24:18.288Z,53.83
2023-02-12T07:29:17.294Z,54.53
2023-02-12T07:34:17.549Z,48.53
2023-02-12T07:39:16.299Z,53.47
2023-02-12T07:44:15.126Z,52.33
2023-02-12T07:49:15.543Z,52.77
2023-02-12T07:54:16.484Z,54.57
2023-02-12T07:59:17.656Z,53.23
2023-02-12T08:04:18.439Z,50.07
2023-02-12T08:09:21.089Z,47.65
2023-02-12T08:14:22.790Z,51.03
2023-02-12T08:19:25.801Z,53.47
2023-02-12T08:24:26.975Z,52.78
2023-02-12T08:29:27.911Z,53.83
2023-02-12T08:34:28.204Z,56.33
2023-02-12T08:39:30.790Z,48.13
2023-02-12T08:44:29.967Z,50.70
2023-02-12T08:49:31.574Z,51.97
2023-02-12T08:54:32.834Z,46.00
2023-02-12T08:59:32.117Z,47.65
2023-02-12T09:04:31.441Z,54.17
2023-02-12T09:09:31.744Z,49.15
2023-02-12T09:14:30.521Z,52.42
2023-02-12T09:19:29.348Z,50.15
2023-02-12T09:24:28.562Z,43.85
2023-02-12T09:29:28.842Z,52.65
2023-02-12T09:34:27.878Z,154.73
2023-02-12T09:39:29.029Z,174.88
2023-02-12T09:44:38.495Z,107.95
2023-02-12T09:49:51.215Z,66.93
2023-02-12T09:54:50.967Z,56.05
2023-02-12T09:59:56.720Z,51.50
2023-02-12T10:05:01.723Z,52.22
2023-02-12T10:10:13.583Z,59.83
2023-02-12T10:15:29.099Z,50.33
2023-02-12T10:20:55.323Z,61.97
2023-02-12T10:25:56.841Z,58.45
2023-02-12T10:31:01.102Z,54.67
2023-02-12T10:36:06.389Z,50.17
2023-02-12T10:41:05.422Z,49.20
2023-02-12T10:46:06.340Z,54.33
2023-02-12T10:51:21.993Z,56.78
2023-02-12T10:56:27.724Z,47.45
2023-02-12T11:01:30.594Z,52.03
2023-02-12T11:06:31.675Z,51.77
2023-02-12T11:11:32.512Z,56.17
2023-02-12T11:16:35.494Z,58.60
2023-02-12T11:21:35.851Z,59.33
2023-02-12T11:26:34.792Z,58.08
2023-02-12T11:31:39.326Z,62.95
2023-02-12T11:36:40.247Z,61.25
2023-02-12T11:41:41.773Z,52.40
2023-02-12T11:46:48.729Z,58.10
2023-02-12T11:51:49.404Z,50.78
2023-02-12T11:56:48.988Z,47.22
2023-02-12T12:01:51.942Z,51.55
2023-02-12T12:06:57.735Z,59.23
2023-02-12T12:12:04.208Z,53.13
2023-02-12T12:17:27.383Z,49.97
2023-02-12T12:22:40.838Z,59.47
2023-02-12T12:28:06.544Z,63.30
2023-02-12T12:33:14.998Z,63.45
2023-02-12T12:38:25.460Z,53.33
2023-02-12T12:43:33.245Z,52.05
2023-02-12T12:48:54.248Z,52.78
2023-02-12T12:54:04.840Z,50.85
2023-02-12T12:59:45.580Z,56.30
2023-02-12T13:05:26.220Z,49.75
2023-02-12T13:10:34.962Z,55.50
2023-02-12T13:15:41.399Z,65.55
2023-02-12T13:20:52.685Z,54.67
2023-02-12T13:26:01.177Z,99.15
2023-02-12T13:31:03.695Z,49.60
2023-02-12T13:36:08.108Z,56.95
2023-02-12T13:41:09.418Z,53.95
2023-02-12T13:46:15.910Z,51.25
2023-02-12T13:51:28.174Z,52.58
2023-02-12T13:56:36.139Z,53.72
2023-02-12T14:01:47.605Z,55.72
2023-02-12T14:07:00.708Z,52.40
2023-02-12T14:12:01.496Z,57.13
2023-02-12T14:17:38.704Z,52.63
2023-02-12T14:23:19.787Z,54.80
2023-02-12T14:28:27.533Z,62.72
2023-02-12T14:33:28.353Z,68.07
2023-02-12T14:39:02.746Z,65.43
2023-02-12T14:44:44.657Z,55.80
2023-02-12T14:49:48.687Z,64.45
2023-02-12T14:54:50.979Z,56.95
2023-02-12T14:59:51.161Z,52.10
2023-02-12T15:04:54.311Z,52.22
2023-02-12T15:10:00.677Z,48.58
2023-02-12T15:15:07.413Z,48.15
2023-02-12T15:20:15.100Z,57.67
2023-02-12T15:25:18.979Z,53.55
2023-02-12T15:30:26.305Z,60.28
2023-02-12T15:35:29.761Z,70.32
2023-02-12T15:40:29.665Z,78.35
2023-02-12T15:45:30.309Z,86.90
2023-02-12T15:50:32.720Z,114.82
2023-02-12T15:55:40.883Z,267.23
2023-02-12T16:00:44.107Z,140.13
2023-02-12T16:05:45.278Z,117.07
2023-02-12T16:10:47.596Z,204.70
2023-02-12T16:15:46.427Z,438.23
2023-02-12T16:20:47.869Z,164.55
2023-02-12T16:25:56.023Z,137.05
2023-02-12T16:31:07.655Z,122.15
2023-02-12T16:36:14.393Z,142.40
2023-02-12T16:41:23.758Z,208.60
2023-02-12T16:46:23.074Z,154.80
2023-02-12T16:51:26.153Z,148.85
2023-02-12T16:56:26.617Z,149.90
2023-02-12T17:01:28.496Z,138.68
2023-02-12T17:06:30.907Z,107.13
2023-02-12T17:11:30.223Z,112.65
2023-02-12T17:16:31.201Z,129.10
2023-02-12T17:21:38.074Z,114.72
2023-02-12T17:26:36.989Z,109.13
2023-02-12T17:31:36.829Z,100.88
2023-02-12T17:36:37.340Z,96.32
2023-02-12T17:41:37.200Z,102.32
2023-02-12T17:46:36.075Z,108.05
2023-02-12T17:51:36.195Z,84.63
2023-02-12T17:56:34.999Z,91.30
2023-02-12T18:01:34.757Z,95.32
2023-02-12T18:06:33.742Z,93.60
2023-02-12T18:11:34.240Z,85.47
2023-02-12T18:16:35.293Z,101.55
2023-02-12T18:21:35.181Z,99.65
2023-02-12T18:26:35.495Z,136.88
2023-02-12T18:31:35.370Z,174.93
2023-02-12T18:36:34.911Z,138.35
2023-02-12T18:41:36.055Z,153.57
2023-02-12T18:46:34.951Z,149.65
2023-02-12T18:51:37.349Z,160.80
2023-02-12T18:56:41.059Z,162.15
2023-02-12T19:06:41.934Z,159.48
2023-02-12T19:11:42.070Z,177.90
2023-02-12T19:16:41.567Z,183.65
2023-02-12T19:21:40.796Z,189.82
2023-02-12T19:26:40.023Z,187.23
2023-02-12T19:31:58.920Z,176.23
2023-02-12T19:36:58.136Z,137.90
2023-02-12T19:41:57.314Z,126.68
2023-02-12T19:46:59.701Z,105.80
2023-02-12T19:51:59.042Z,115.25
2023-02-12T19:56:58.368Z,116.72
2023-02-12T20:01:59.561Z,117.25
2023-02-12T20:06:59.125Z,117.95
2023-02-12T20:11:58.398Z,110.28
2023-02-12T20:17:02.598Z,103.38
2023-02-12T20:22:04.812Z,93.85
2023-02-12T20:27:06.517Z,97.28
2023-02-12T20:32:08.589Z,104.63
2023-02-12T20:37:08.640Z,128.77
2023-02-12T20:42:09.158Z,161.25
2023-02-12T20:47:11.148Z,156.05
2023-02-12T20:52:11.438Z,149.33
2023-02-12T20:57:13.154Z,137.85
2023-02-12T21:02:13.541Z,127.80
2023-02-12T21:07:12.356Z,124.45
2023-02-12T21:12:20.581Z,105.05
2023-02-12T21:17:22.170Z,104.70
2023-02-12T21:22:21.563Z,95.82
2023-02-12T21:27:20.528Z,98.95
2023-02-12T21:32:20.827Z,140.75
2023-02-12T21:37:19.806Z,112.68
2023-02-12T21:42:18.551Z,106.10
2023-02-12T21:47:17.381Z,89.40
2023-02-12T21:52:17.482Z,68.45
2023-02-12T21:57:19.931Z,57.47
2023-02-12T22:02:18.822Z,49.00
2023-02-12T22:07:21.007Z,51.67
2023-02-12T22:12:19.809Z,48.30
2023-02-12T22:17:18.582Z,45.22
2023-02-12T22:22:18.841Z,39.13
2023-02-12T22:27:17.597Z,41.20
2023-02-12T22:32:16.430Z,32.97
2023-02-12T22:37:15.306Z,30.47
2023-02-12T22:42:15.437Z,32.17
2023-02-12T22:47:25.873Z,26.53
2023-02-12T22:52:26.050Z,31.77
2023-02-12T22:57:28.167Z,25.77
2023-02-12T23:02:26.942Z,27.40
2023-02-12T23:07:27.819Z,29.48
2023-02-12T23:12:27.954Z,32.27
2023-02-12T23:17:26.762Z,34.70
2023-02-12T23:22:25.582Z,31.73
2023-02-12T23:27:24.426Z,28.87
2023-02-12T23:32:24.671Z,28.30
2023-02-12T23:37:23.740Z,24.67
2023-02-12T23:42:22.586Z,25.67
2023-02-12T23:47:21.297Z,37.30
2023-02-12T23:52:21.405Z,41.47
2023-02-12T23:57:20.305Z,34.10
